METAR Data
IDs: Format: Raw Decoded Include TAF

Data at: 0550 UTC 19 Aug 2019

METAR for:KFIT (Fitchburg Munih, MA, US)
Text:KFIT 190452Z AUTO 00000KT 10SM CLR 23/19 A2994 RMK AO2 SLP137 T02330189 403170183
Temperature: 23.3°C ( 74°F)
Dewpoint: 18.9°C ( 66°F) [RH = 76%]
Pressure (altimeter):29.94 inches Hg (1014.0 mb) [Sea level pressure: 1013.7 mb]
Winds:calm
Visibility:10 or more sm (16+ km)
Ceiling:at least 12,000 feet AGL
Clouds:sky clear below 12,000 feet AGL
QC Flag:automated observation with no human augmentation